Zoetermeer, Netherlands
Current Conditions -  °F | °C
As of 1:25 AM on Thursday 29 Jan 2015 (Local Time) from EHRD Reporting Station
Clear Clear  
Wind Chill: 32°   Ceiling: Unl
Heat Index: 41°   Visibility: 6mi
Dew Point: 28°   Wind: 18mph
Humidity: 61%   Direction: 250°WSW
Pressure: 29.38"   Gusts: NA
Location:  52.06°N, 4.49°E
Report Text: EHRD 290025Z AUTO 25016KT 220V280 9999 NSC 05/M02 Q0995 NOSIG
Loading
Personal Weather Stations






























Interactive Weather Map New forecast layout! Learn more

10-Day Weather Forecast

Advertisements
Track Severe Weather on mobile